sensor_id;sensor_type;location;lat;lon;timestamp;pressure;altitude;pressure_sealevel;temperature;humidity
28927;BME280;16038;47.692;9.400;2023-05-16T00:00:26;96290.03;;;10.18;100.00
28927;BME280;16038;47.692;9.400;2023-05-16T00:02:52;96286.88;;;10.16;100.00
28927;BME280;16038;47.692;9.400;2023-05-16T00:05:18;96290.38;;;10.13;100.00
28927;BME280;16038;47.692;9.400;2023-05-16T00:07:45;96288.44;;;10.17;100.00
28927;BME280;16038;47.692;9.400;2023-05-16T00:10:11;96287.03;;;10.30;100.00
28927;BME280;16038;47.692;9.400;2023-05-16T00:12:37;96281.72;;;10.41;100.00
28927;BME280;16038;47.692;9.400;2023-05-16T00:15:04;96286.47;;;10.48;100.00
28927;BME280;16038;47.692;9.400;2023-05-16T00:17:30;96283.44;;;10.60;100.00
28927;BME280;16038;47.692;9.400;2023-05-16T00:19:56;96285.47;;;10.67;100.00
28927;BME280;16038;47.692;9.400;2023-05-16T00:22:25;96282.03;;;10.74;100.00
28927;BME280;16038;47.692;9.400;2023-05-16T00:24:51;96278.94;;;10.79;100.00
28927;BME280;16038;47.692;9.400;2023-05-16T00:27:16;96280.16;;;10.85;100.00
28927;BME280;16038;47.692;9.400;2023-05-16T00:29:42;96281.75;;;10.86;100.00
28927;BME280;16038;47.692;9.400;2023-05-16T00:32:07;96286.44;;;10.89;100.00
28927;BME280;16038;47.692;9.400;2023-05-16T00:34:35;96284.91;;;10.92;100.00
28927;BME280;16038;47.692;9.400;2023-05-16T00:37:01;96275.13;;;10.94;100.00
28927;BME280;16038;47.692;9.400;2023-05-16T00:39:26;96286.47;;;10.93;100.00
28927;BME280;16038;47.692;9.400;2023-05-16T00:41:51;96279.84;;;10.94;100.00
28927;BME280;16038;47.692;9.400;2023-05-16T00:44:17;96276.69;;;10.92;100.00
28927;BME280;16038;47.692;9.400;2023-05-16T00:46:42;96277.81;;;10.87;100.00
28927;BME280;16038;47.692;9.400;2023-05-16T00:49:08;96276.22;;;10.82;100.00
28927;BME280;16038;47.692;9.400;2023-05-16T00:51:33;96266.81;;;10.80;100.00
28927;BME280;16038;47.692;9.400;2023-05-16T00:53:58;96265.25;;;10.79;100.00
28927;BME280;16038;47.692;9.400;2023-05-16T00:56:24;96266.00;;;10.76;100.00
28927;BME280;16038;47.692;9.400;2023-05-16T00:58:49;96263.25;;;10.76;100.00
28927;BME280;16038;47.692;9.400;2023-05-16T01:01:15;96265.25;;;10.79;100.00
28927;BME280;16038;47.692;9.400;2023-05-16T01:03:41;96255.84;;;10.80;100.00
28927;BME280;16038;47.692;9.400;2023-05-16T01:06:06;96260.22;;;10.88;100.00
28927;BME280;16038;47.692;9.400;2023-05-16T01:08:32;96255.88;;;10.83;100.00
28927;BME280;16038;47.692;9.400;2023-05-16T01:10:59;96255.81;;;10.76;100.00
28927;BME280;16038;47.692;9.400;2023-05-16T01:13:31;96257.47;;;10.84;100.00
28927;BME280;16038;47.692;9.400;2023-05-16T01:18:56;96249.28;;;10.92;100.00
28927;BME280;16038;47.692;9.400;2023-05-16T01:21:37;96255.03;;;10.76;100.00
28927;BME280;16038;47.692;9.400;2023-05-16T01:24:13;96256.00;;;10.53;100.00
28927;BME280;16038;47.692;9.400;2023-05-16T01:26:40;96261.94;;;10.21;100.00
28927;BME280;16038;47.692;9.400;2023-05-16T01:29:06;96254.38;;;10.11;100.00
28927;BME280;16038;47.692;9.400;2023-05-16T01:31:31;96252.41;;;10.11;100.00
28927;BME280;16038;47.692;9.400;2023-05-16T01:33:56;96254.50;;;10.22;100.00
28927;BME280;16038;47.692;9.400;2023-05-16T01:44:04;96246.59;;;10.50;100.00
28927;BME280;16038;47.692;9.400;2023-05-16T01:46:33;96242.75;;;10.59;100.00
28927;BME280;16038;47.692;9.400;2023-05-16T01:49:14;96238.47;;;10.61;100.00
28927;BME280;16038;47.692;9.400;2023-05-16T01:51:50;96244.03;;;10.68;100.00
28927;BME280;16038;47.692;9.400;2023-05-16T01:54:17;96242.81;;;10.66;100.00
28927;BME280;16038;47.692;9.400;2023-05-16T01:56:43;96237.78;;;10.71;100.00
28927;BME280;16038;47.692;9.400;2023-05-16T01:59:12;96244.03;;;10.72;100.00
28927;BME280;16038;47.692;9.400;2023-05-16T02:01:37;96233.41;;;10.63;100.00
28927;BME280;16038;47.692;9.400;2023-05-16T02:04:03;96230.66;;;10.63;100.00
28927;BME280;16038;47.692;9.400;2023-05-16T02:06:28;96229.13;;;10.66;100.00
28927;BME280;16038;47.692;9.400;2023-05-16T02:08:54;96232.66;;;10.66;100.00
28927;BME280;16038;47.692;9.400;2023-05-16T02:11:20;96228.00;;;10.70;100.00
28927;BME280;16038;47.692;9.400;2023-05-16T02:13:46;96230.69;;;10.67;100.00
28927;BME280;16038;47.692;9.400;2023-05-16T02:16:11;96230.66;;;10.63;100.00
28927;BME280;16038;47.692;9.400;2023-05-16T02:18:37;96221.66;;;10.59;100.00
28927;BME280;16038;47.692;9.400;2023-05-16T02:21:02;96229.81;;;10.56;100.00
28927;BME280;16038;47.692;9.400;2023-05-16T02:23:28;96235.28;;;10.52;100.00
28927;BME280;16038;47.692;9.400;2023-05-16T02:25:53;96232.81;;;10.40;100.00
28927;BME280;16038;47.692;9.400;2023-05-16T02:28:19;96227.19;;;10.29;100.00
28927;BME280;16038;47.692;9.400;2023-05-16T02:30:44;96232.69;;;10.29;100.00
28927;BME280;16038;47.692;9.400;2023-05-16T02:33:10;96223.69;;;10.28;100.00
28927;BME280;16038;47.692;9.400;2023-05-16T02:35:35;96224.69;;;10.13;100.00
28927;BME280;16038;47.692;9.400;2023-05-16T02:38:00;96225.28;;;9.95;100.00
28927;BME280;16038;47.692;9.400;2023-05-16T02:40:26;96220.13;;;9.87;100.00
28927;BME280;16038;47.692;9.400;2023-05-16T02:42:51;96224.97;;;9.70;100.00
28927;BME280;16038;47.692;9.400;2023-05-16T02:45:16;96215.91;;;9.63;100.00
28927;BME280;16038;47.692;9.400;2023-05-16T02:47:41;96218.19;;;9.57;100.00
28927;BME280;16038;47.692;9.400;2023-05-16T02:50:07;96222.78;;;9.49;100.00
28927;BME280;16038;47.692;9.400;2023-05-16T02:52:32;96218.84;;;9.47;100.00
28927;BME280;16038;47.692;9.400;2023-05-16T02:54:57;96218.88;;;9.50;100.00
28927;BME280;16038;47.692;9.400;2023-05-16T02:57:23;96218.19;;;9.57;100.00
28927;BME280;16038;47.692;9.400;2023-05-16T02:59:48;96217.91;;;9.66;100.00
28927;BME280;16038;47.692;9.400;2023-05-16T03:02:13;96217.69;;;9.78;100.00
28927;BME280;16038;47.692;9.400;2023-05-16T03:04:39;96225.50;;;9.80;100.00
28927;BME280;16038;47.692;9.400;2023-05-16T03:07:04;96216.16;;;9.84;100.00
28927;BME280;16038;47.692;9.400;2023-05-16T03:09:29;96219.09;;;9.68;100.00
28927;BME280;16038;47.692;9.400;2023-05-16T03:11:55;96223.78;;;9.37;100.00
28927;BME280;16038;47.692;9.400;2023-05-16T03:14:20;96221.59;;;9.16;100.00
28927;BME280;16038;47.692;9.400;2023-05-16T03:16:45;96218.03;;;9.16;100.00
28927;BME280;16038;47.692;9.400;2023-05-16T03:19:11;96220.78;;;9.16;100.00
28927;BME280;16038;47.692;9.400;2023-05-16T03:21:36;96223.91;;;9.18;100.00
28927;BME280;16038;47.692;9.400;2023-05-16T03:24:02;96226.44;;;9.30;100.00
28927;BME280;16038;47.692;9.400;2023-05-16T03:26:28;96219.59;;;9.44;100.00
28927;BME280;16038;47.692;9.400;2023-05-16T03:28:53;96214.28;;;9.54;100.00
28927;BME280;16038;47.692;9.400;2023-05-16T03:31:18;96212.41;;;9.62;100.00
28927;BME280;16038;47.692;9.400;2023-05-16T03:33:44;96210.53;;;9.70;100.00
28927;BME280;16038;47.692;9.400;2023-05-16T03:36:09;96216.31;;;9.65;100.00
28927;BME280;16038;47.692;9.400;2023-05-16T03:38:35;96211.28;;;9.67;100.00
28927;BME280;16038;47.692;9.400;2023-05-16T03:41:00;96208.16;;;9.68;100.00
28927;BME280;16038;47.692;9.400;2023-05-16T03:43:26;96213.63;;;9.68;100.00
28927;BME280;16038;47.692;9.400;2023-05-16T03:45:51;96208.56;;;9.70;100.00
28927;BME280;16038;47.692;9.400;2023-05-16T03:48:16;96202.63;;;9.61;100.00
28927;BME280;16038;47.692;9.400;2023-05-16T03:50:42;96199.88;;;9.61;100.00
28927;BME280;16038;47.692;9.400;2023-05-16T03:53:09;96198.97;;;9.50;100.00
28927;BME280;16038;47.692;9.400;2023-05-16T03:55:34;96201.97;;;9.41;100.00
28927;BME280;16038;47.692;9.400;2023-05-16T03:58:00;96206.75;;;9.48;100.00
28927;BME280;16038;47.692;9.400;2023-05-16T04:00:25;96210.53;;;9.40;100.00
28927;BME280;16038;47.692;9.400;2023-05-16T04:02:51;96213.28;;;9.40;100.00
28927;BME280;16038;47.692;9.400;2023-05-16T04:05:16;96213.28;;;9.40;100.00
28927;BME280;16038;47.692;9.400;2023-05-16T04:07:42;96209.69;;;9.32;100.00
28927;BME280;16038;47.692;9.400;2023-05-16T04:10:07;96218.56;;;9.25;100.00
28927;BME280;16038;47.692;9.400;2023-05-16T04:12:33;96220.50;;;9.25;100.00
28927;BME280;16038;47.692;9.400;2023-05-16T04:14:59;96211.72;;;9.38;100.00
28927;BME280;16038;47.692;9.400;2023-05-16T04:17:25;96221.94;;;9.45;100.00
28927;BME280;16038;47.692;9.400;2023-05-16T04:19:50;96221.66;;;9.54;100.00
28927;BME280;16038;47.692;9.400;2023-05-16T04:22:15;96221.56;;;9.47;100.00
28927;BME280;16038;47.692;9.400;2023-05-16T04:24:41;96228.69;;;9.51;100.00
28927;BME280;16038;47.692;9.400;2023-05-16T04:27:06;96227.22;;;9.61;100.00
28927;BME280;16038;47.692;9.400;2023-05-16T04:29:34;96233.22;;;9.74;100.00
28927;BME280;16038;47.692;9.400;2023-05-16T04:32:00;96234.28;;;9.62;100.00
28927;BME280;16038;47.692;9.400;2023-05-16T04:34:26;96238.13;;;9.57;100.00
28927;BME280;16038;47.692;9.400;2023-05-16T04:36:54;96237.19;;;9.46;100.00
28927;BME280;16038;47.692;9.400;2023-05-16T04:39:20;96231.88;;;9.57;100.00
28927;BME280;16038;47.692;9.400;2023-05-16T04:41:45;96235.38;;;9.57;100.00
28927;BME280;16038;47.692;9.400;2023-05-16T04:44:10;96233.50;;;9.62;100.00
28927;BME280;16038;47.692;9.400;2023-05-16T04:46:35;96237.44;;;9.64;100.00
28927;BME280;16038;47.692;9.400;2023-05-16T04:49:01;96235.69;;;9.52;100.00
28927;BME280;16038;47.692;9.400;2023-05-16T04:51:26;96236.78;;;9.44;100.00
28927;BME280;16038;47.692;9.400;2023-05-16T04:53:52;96235.09;;;9.36;100.00
28927;BME280;16038;47.692;9.400;2023-05-16T04:56:17;96237.16;;;9.43;100.00
28927;BME280;16038;47.692;9.400;2023-05-16T04:58:43;96226.31;;;9.50;100.00
28927;BME280;16038;47.692;9.400;2023-05-16T05:01:08;96244.44;;;9.62;100.00
28927;BME280;16038;47.692;9.400;2023-05-16T05:03:33;96236.44;;;9.80;100.00
28927;BME280;16038;47.692;9.400;2023-05-16T05:06:00;96237.31;;;9.87;100.00
28927;BME280;16038;47.692;9.400;2023-05-16T05:08:25;96235.44;;;9.95;100.00
28927;BME280;16038;47.692;9.400;2023-05-16T05:10:50;96242.22;;;10.05;100.00
28927;BME280;16038;47.692;9.400;2023-05-16T05:13:16;96243.09;;;10.16;100.00
28927;BME280;16038;47.692;9.400;2023-05-16T05:15:41;96243.53;;;10.22;100.00
28927;BME280;16038;47.692;9.400;2023-05-16T05:18:06;96243.72;;;10.36;100.00
28927;BME280;16038;47.692;9.400;2023-05-16T05:20:31;96241.78;;;10.40;100.00
28927;BME280;16038;47.692;9.400;2023-05-16T05:22:57;96249.34;;;10.50;100.00
28927;BME280;16038;47.692;9.400;2023-05-16T05:25:22;96242.38;;;10.60;100.00
28927;BME280;16038;47.692;9.400;2023-05-16T05:27:47;96249.91;;;10.70;100.00
28927;BME280;16038;47.692;9.400;2023-05-16T05:30:13;96245.63;;;10.77;100.00
28927;BME280;16038;47.692;9.400;2023-05-16T05:32:38;96245.72;;;10.87;100.00
28927;BME280;16038;47.692;9.400;2023-05-16T05:35:04;96247.03;;;11.04;100.00
28927;BME280;16038;47.692;9.400;2023-05-16T05:37:29;96249.50;;;11.20;100.00
28927;BME280;16038;47.692;9.400;2023-05-16T05:39:55;96255.16;;;11.45;100.00
28927;BME280;16038;47.692;9.400;2023-05-16T05:42:20;96248.56;;;11.64;100.00
28927;BME280;16038;47.692;9.400;2023-05-16T05:44:46;96248.66;;;11.82;100.00
28927;BME280;16038;47.692;9.400;2023-05-16T05:47:11;96250.75;;;12.14;100.00
28927;BME280;16038;47.692;9.400;2023-05-16T05:49:36;96245.31;;;12.32;100.00
28927;BME280;16038;47.692;9.400;2023-05-16T05:52:02;96244.97;;;12.59;100.00
28927;BME280;16038;47.692;9.400;2023-05-16T05:54:27;96252.69;;;12.03;100.00
28927;BME280;16038;47.692;9.400;2023-05-16T05:56:52;96253.13;;;12.16;100.00
28927;BME280;16038;47.692;9.400;2023-05-16T05:59:18;96260.34;;;11.65;100.00
28927;BME280;16038;47.692;9.400;2023-05-16T06:01:43;96257.97;;;11.63;100.00
28927;BME280;16038;47.692;9.400;2023-05-16T06:04:08;96259.81;;;11.41;100.00
28927;BME280;16038;47.692;9.400;2023-05-16T06:06:34;96258.38;;;11.03;100.00
28927;BME280;16038;47.692;9.400;2023-05-16T06:08:59;96260.91;;;10.78;100.00
28927;BME280;16038;47.692;9.400;2023-05-16T06:11:25;96255.00;;;10.72;100.00
28927;BME280;16038;47.692;9.400;2023-05-16T06:13:50;96254.72;;;10.84;100.00
28927;BME280;16038;47.692;9.400;2023-05-16T06:16:16;96256.28;;;11.41;100.00
28927;BME280;16038;47.692;9.400;2023-05-16T06:18:42;96259.03;;;12.25;100.00
28927;BME280;16038;47.692;9.400;2023-05-16T06:21:07;96261.09;;;13.11;100.00
28927;BME280;16038;47.692;9.400;2023-05-16T06:23:33;96254.94;;;14.09;100.00
28927;BME280;16038;47.692;9.400;2023-05-16T06:25:58;96258.19;;;15.20;100.00
28927;BME280;16038;47.692;9.400;2023-05-16T06:28:23;96265.13;;;16.42;98.68
28927;BME280;16038;47.692;9.400;2023-05-16T06:30:49;96267.03;;;17.94;80.41
28927;BME280;16038;47.692;9.400;2023-05-16T06:33:15;96262.81;;;19.15;70.00
28927;BME280;16038;47.692;9.400;2023-05-16T06:35:41;96268.53;;;19.74;64.00
28927;BME280;16038;47.692;9.400;2023-05-16T06:38:06;96269.63;;;20.48;57.18
28927;BME280;16038;47.692;9.400;2023-05-16T06:40:31;96270.75;;;21.27;56.03
28927;BME280;16038;47.692;9.400;2023-05-16T06:42:57;96266.56;;;20.29;57.29
28927;BME280;16038;47.692;9.400;2023-05-16T06:45:22;96267.88;;;20.79;56.24
28927;BME280;16038;47.692;9.400;2023-05-16T06:47:47;96275.88;;;21.29;55.20
28927;BME280;16038;47.692;9.400;2023-05-16T06:50:13;96278.00;;;21.25;54.69
28927;BME280;16038;47.692;9.400;2023-05-16T06:52:38;96272.56;;;19.69;57.09
28927;BME280;16038;47.692;9.400;2023-05-16T06:55:03;96275.13;;;18.81;61.46
28927;BME280;16038;47.692;9.400;2023-05-16T06:57:29;96277.63;;;17.08;68.82
28927;BME280;16038;47.692;9.400;2023-05-16T06:59:54;96275.31;;;17.27;71.58
28927;BME280;16038;47.692;9.400;2023-05-16T07:02:19;96274.59;;;16.99;69.74
28927;BME280;16038;47.692;9.400;2023-05-16T07:04:45;96271.78;;;14.93;84.99
28927;BME280;16038;47.692;9.400;2023-05-16T07:07:10;96267.13;;;15.76;80.43
28927;BME280;16038;47.692;9.400;2023-05-16T07:09:35;96265.41;;;16.51;78.66
28927;BME280;16038;47.692;9.400;2023-05-16T07:12:00;96261.38;;;17.57;71.97
28927;BME280;16038;47.692;9.400;2023-05-16T07:14:26;96265.72;;;15.54;79.55
28927;BME280;16038;47.692;9.400;2023-05-16T07:16:51;96275.94;;;16.60;75.44
28927;BME280;16038;47.692;9.400;2023-05-16T07:19:17;96270.19;;;16.47;72.94
28927;BME280;16038;47.692;9.400;2023-05-16T07:21:42;96270.81;;;15.17;81.76
28927;BME280;16038;47.692;9.400;2023-05-16T07:24:07;96275.31;;;15.83;79.48
28927;BME280;16038;47.692;9.400;2023-05-16T07:26:32;96277.00;;;14.80;84.22
28927;BME280;16038;47.692;9.400;2023-05-16T07:28:58;96275.31;;;14.30;89.02
28927;BME280;16038;47.692;9.400;2023-05-16T07:31:23;96265.38;;;13.15;97.26
28927;BME280;16038;47.692;9.400;2023-05-16T07:33:48;96272.47;;;13.49;100.00
28927;BME280;16038;47.692;9.400;2023-05-16T07:36:14;96265.38;;;13.55;99.13
28927;BME280;16038;47.692;9.400;2023-05-16T07:38:39;96266.31;;;14.15;97.48
28927;BME280;16038;47.692;9.400;2023-05-16T07:41:04;96265.72;;;13.68;95.57
28927;BME280;16038;47.692;9.400;2023-05-16T07:43:30;96269.72;;;12.98;100.00
28927;BME280;16038;47.692;9.400;2023-05-16T07:45:56;96270.13;;;13.36;100.00
28927;BME280;16038;47.692;9.400;2023-05-16T07:48:21;96281.50;;;12.95;100.00
28927;BME280;16038;47.692;9.400;2023-05-16T07:50:46;96279.13;;;13.26;100.00
28927;BME280;16038;47.692;9.400;2023-05-16T07:53:13;96278.25;;;13.87;100.00
28927;BME280;16038;47.692;9.400;2023-05-16T07:55:38;96275.69;;;14.36;96.16
28927;BME280;16038;47.692;9.400;2023-05-16T07:58:03;96285.09;;;14.42;93.59
28927;BME280;16038;47.692;9.400;2023-05-16T08:00:29;96272.94;;;14.36;94.68
28927;BME280;16038;47.692;9.400;2023-05-16T08:02:54;96278.72;;;14.56;93.38
28927;BME280;16038;47.692;9.400;2023-05-16T08:05:19;96273.75;;;14.25;92.54
28927;BME280;16038;47.692;9.400;2023-05-16T08:07:45;96282.38;;;14.98;92.81
28927;BME280;16038;47.692;9.400;2023-05-16T08:10:10;96283.97;;;15.44;89.63
28927;BME280;16038;47.692;9.400;2023-05-16T08:12:35;96276.28;;;15.62;86.43
28927;BME280;16038;47.692;9.400;2023-05-16T08:15:02;96276.88;;;15.43;86.94
28927;BME280;16038;47.692;9.400;2023-05-16T08:17:27;96279.78;;;15.70;85.00
28927;BME280;16038;47.692;9.400;2023-05-16T08:19:52;96283.34;;;15.67;82.82
28927;BME280;16038;47.692;9.400;2023-05-16T08:22:18;96281.13;;;15.55;81.98
28927;BME280;16038;47.692;9.400;2023-05-16T08:24:43;96277.09;;;15.63;80.07
28927;BME280;16038;47.692;9.400;2023-05-16T08:27:08;96275.28;;;15.00;85.03
28927;BME280;16038;47.692;9.400;2023-05-16T08:29:35;96280.84;;;15.42;82.98
28927;BME280;16038;47.692;9.400;2023-05-16T08:32:00;96284.50;;;16.08;81.24
28927;BME280;16038;47.692;9.400;2023-05-16T08:34:25;96281.59;;;16.49;77.67
28927;BME280;16038;47.692;9.400;2023-05-16T08:36:50;96281.81;;;15.21;83.89
28927;BME280;16038;47.692;9.400;2023-05-16T08:39:16;96283.25;;;14.17;89.92
28927;BME280;16038;47.692;9.400;2023-05-16T08:41:41;96283.38;;;13.88;93.56
28927;BME280;16038;47.692;9.400;2023-05-16T08:44:06;96277.31;;;14.22;91.88
28927;BME280;16038;47.692;9.400;2023-05-16T08:46:34;96279.44;;;13.82;95.96
28927;BME280;16038;47.692;9.400;2023-05-16T08:48:59;96275.50;;;13.83;95.48
28927;BME280;16038;47.692;9.400;2023-05-16T08:51:26;96283.38;;;13.81;95.47
28927;BME280;16038;47.692;9.400;2023-05-16T08:54:10;96274.84;;;13.07;100.00
28927;BME280;16038;47.692;9.400;2023-05-16T08:56:37;96286.63;;;13.33;100.00
28927;BME280;16038;47.692;9.400;2023-05-16T08:59:02;96277.97;;;13.20;100.00
28927;BME280;16038;47.692;9.400;2023-05-16T09:01:29;96279.50;;;13.53;98.97
28927;BME280;16038;47.692;9.400;2023-05-16T09:03:54;96278.25;;;13.90;98.15
28927;BME280;16038;47.692;9.400;2023-05-16T09:06:20;96279.09;;;14.61;93.23
28927;BME280;16038;47.692;9.400;2023-05-16T09:08:45;96280.50;;;14.21;94.03
28927;BME280;16038;47.692;9.400;2023-05-16T09:11:11;96272.81;;;13.69;94.09
28927;BME280;16038;47.692;9.400;2023-05-16T09:13:37;96270.19;;;14.32;93.09
28927;BME280;16038;47.692;9.400;2023-05-16T09:16:10;96269.19;;;15.23;88.40
28927;BME280;16038;47.692;9.400;2023-05-16T09:18:36;96252.34;;;14.54;86.55
28927;BME280;16038;47.692;9.400;2023-05-16T09:21:02;96252.03;;;14.42;89.66
28927;BME280;16038;47.692;9.400;2023-05-16T09:23:27;96255.34;;;14.78;89.99
28927;BME280;16038;47.692;9.400;2023-05-16T09:25:53;96256.41;;;14.32;90.00
28927;BME280;16038;47.692;9.400;2023-05-16T09:28:18;96251.38;;;14.20;90.85
28927;BME280;16038;47.692;9.400;2023-05-16T09:30:45;96250.56;;;14.23;92.64
28927;BME280;16038;47.692;9.400;2023-05-16T09:33:10;96263.13;;;14.94;91.05
28927;BME280;16038;47.692;9.400;2023-05-16T09:35:35;96269.47;;;15.78;83.75
28927;BME280;16038;47.692;9.400;2023-05-16T09:38:01;96275.53;;;16.00;83.33
28927;BME280;16038;47.692;9.400;2023-05-16T09:40:26;96268.59;;;16.19;80.97
28927;BME280;16038;47.692;9.400;2023-05-16T09:43:05;96268.53;;;15.88;81.31
28927;BME280;16038;47.692;9.400;2023-05-16T09:45:31;96273.09;;;15.26;82.18
28927;BME280;16038;47.692;9.400;2023-05-16T09:48:05;96270.34;;;14.77;84.36
28927;BME280;16038;47.692;9.400;2023-05-16T09:50:35;96268.06;;;14.61;85.51
28927;BME280;16038;47.692;9.400;2023-05-16T09:53:01;96266.44;;;14.71;86.12
28927;BME280;16038;47.692;9.400;2023-05-16T09:55:26;96267.13;;;14.86;87.12
28927;BME280;16038;47.692;9.400;2023-05-16T09:57:51;96263.16;;;14.87;86.24
28927;BME280;16038;47.692;9.400;2023-05-16T10:00:17;96261.63;;;14.82;86.60
28927;BME280;16038;47.692;9.400;2023-05-16T10:02:42;96257.75;;;14.72;88.46
28927;BME280;16038;47.692;9.400;2023-05-16T10:05:08;96265.13;;;14.90;88.80
28927;BME280;16038;47.692;9.400;2023-05-16T10:07:33;96268.13;;;15.10;88.42
28927;BME280;16038;47.692;9.400;2023-05-16T10:09:59;96264.56;;;15.09;87.42
28927;BME280;16038;47.692;9.400;2023-05-16T10:12:29;96255.97;;;15.04;87.42
28927;BME280;16038;47.692;9.400;2023-05-16T10:14:55;96266.38;;;14.78;89.37
28927;BME280;16038;47.692;9.400;2023-05-16T10:17:20;96263.69;;;14.67;91.51
28927;BME280;16038;47.692;9.400;2023-05-16T10:19:46;96259.50;;;14.41;91.62
28927;BME280;16038;47.692;9.400;2023-05-16T10:22:12;96259.56;;;14.34;92.70
28927;BME280;16038;47.692;9.400;2023-05-16T10:24:53;96261.56;;;14.30;93.50
28927;BME280;16038;47.692;9.400;2023-05-16T10:27:22;96262.25;;;14.45;92.53
28927;BME280;16038;47.692;9.400;2023-05-16T10:29:48;96260.25;;;14.45;94.14
28927;BME280;16038;47.692;9.400;2023-05-16T10:32:14;96266.53;;;14.49;94.24
28927;BME280;16038;47.692;9.400;2023-05-16T10:34:40;96266.16;;;14.47;94.02
28927;BME280;16038;47.692;9.400;2023-05-16T10:37:06;96262.72;;;14.32;93.66
28927;BME280;16038;47.692;9.400;2023-05-16T10:39:32;96266.66;;;14.35;93.01
28927;BME280;16038;47.692;9.400;2023-05-16T10:41:57;96268.28;;;14.22;94.95
28927;BME280;16038;47.692;9.400;2023-05-16T10:44:24;96266.25;;;14.29;95.99
28927;BME280;16038;47.692;9.400;2023-05-16T10:46:49;96267.53;;;14.14;96.85
28927;BME280;16038;47.692;9.400;2023-05-16T10:49:18;96263.50;;;14.29;97.66
28927;BME280;16038;47.692;9.400;2023-05-16T10:51:43;96267.41;;;14.36;96.58
28927;BME280;16038;47.692;9.400;2023-05-16T10:54:09;96266.69;;;14.24;96.05
28927;BME280;16038;47.692;9.400;2023-05-16T10:56:36;96266.75;;;14.10;97.41
28927;BME280;16038;47.692;9.400;2023-05-16T10:59:01;96261.72;;;13.90;97.18
28927;BME280;16038;47.692;9.400;2023-05-16T11:01:32;96260.50;;;13.95;97.10
28927;BME280;16038;47.692;9.400;2023-05-16T11:14:06;96268.78;;;14.72;94.03
28927;BME280;16038;47.692;9.400;2023-05-16T11:16:32;96265.34;;;14.54;91.30
28927;BME280;16038;47.692;9.400;2023-05-16T11:19:04;96272.22;;;14.21;92.99
28927;BME280;16038;47.692;9.400;2023-05-16T11:24:27;96268.09;;;13.66;95.23
28927;BME280;16038;47.692;9.400;2023-05-16T11:26:52;96268.44;;;13.75;95.07
28927;BME280;16038;47.692;9.400;2023-05-16T11:29:18;96272.41;;;13.70;95.54
28927;BME280;16038;47.692;9.400;2023-05-16T11:31:44;96269.69;;;13.63;96.45
28927;BME280;16038;47.692;9.400;2023-05-16T11:34:09;96279.13;;;13.55;97.00
28927;BME280;16038;47.692;9.400;2023-05-16T11:36:35;96279.06;;;13.76;97.24
28927;BME280;16038;47.692;9.400;2023-05-16T11:39:05;96283.84;;;13.29;98.01
28927;BME280;16038;47.692;9.400;2023-05-16T11:41:31;96277.97;;;13.45;100.00
28927;BME280;16038;47.692;9.400;2023-05-16T11:43:56;96285.03;;;13.46;100.00
28927;BME280;16038;47.692;9.400;2023-05-16T11:46:22;96289.00;;;13.31;100.00
28927;BME280;16038;47.692;9.400;2023-05-16T11:48:47;96286.97;;;12.74;100.00
28927;BME280;16038;47.692;9.400;2023-05-16T11:51:13;96292.88;;;13.15;100.00
28927;BME280;16038;47.692;9.400;2023-05-16T11:53:42;96292.09;;;13.22;100.00
28927;BME280;16038;47.692;9.400;2023-05-16T11:56:09;96292.50;;;13.24;100.00
28927;BME280;16038;47.692;9.400;2023-05-16T11:58:35;96293.66;;;12.84;100.00
28927;BME280;16038;47.692;9.400;2023-05-16T12:01:03;96287.75;;;13.28;100.00
28927;BME280;16038;47.692;9.400;2023-05-16T12:03:28;96292.88;;;13.44;98.33
28927;BME280;16038;47.692;9.400;2023-05-16T12:05:57;96290.88;;;13.59;98.77
28927;BME280;16038;47.692;9.400;2023-05-16T12:08:23;96297.53;;;13.80;98.98
28927;BME280;16038;47.692;9.400;2023-05-16T12:10:51;96292.34;;;14.07;99.89
28927;BME280;16038;47.692;9.400;2023-05-16T12:13:17;96297.00;;;14.24;98.99
28927;BME280;16038;47.692;9.400;2023-05-16T12:15:43;96299.31;;;14.26;97.65
28927;BME280;16038;47.692;9.400;2023-05-16T12:18:09;96304.56;;;13.91;95.98
28927;BME280;16038;47.692;9.400;2023-05-16T12:20:35;96304.25;;;13.71;99.84
28927;BME280;16038;47.692;9.400;2023-05-16T12:23:00;96307.75;;;13.83;100.00
28927;BME280;16038;47.692;9.400;2023-05-16T12:25:29;96310.47;;;13.93;100.00
28927;BME280;16038;47.692;9.400;2023-05-16T12:28:00;96306.66;;;13.44;98.05
28927;BME280;16038;47.692;9.400;2023-05-16T12:30:26;96320.75;;;13.68;99.56
28927;BME280;16038;47.692;9.400;2023-05-16T12:32:54;96323.53;;;13.28;100.00
28927;BME280;16038;47.692;9.400;2023-05-16T12:35:20;96323.09;;;12.83;100.00
28927;BME280;16038;47.692;9.400;2023-05-16T12:37:45;96317.25;;;13.38;100.00
28927;BME280;16038;47.692;9.400;2023-05-16T12:40:11;96318.41;;;13.52;98.79
28927;BME280;16038;47.692;9.400;2023-05-16T12:42:37;96322.72;;;13.74;97.21
28927;BME280;16038;47.692;9.400;2023-05-16T12:45:02;96319.22;;;13.63;96.50
28927;BME280;16038;47.692;9.400;2023-05-16T12:47:35;96323.06;;;12.61;100.00
28927;BME280;16038;47.692;9.400;2023-05-16T12:50:01;96320.78;;;13.17;100.00
28927;BME280;16038;47.692;9.400;2023-05-16T12:52:27;96321.19;;;13.34;100.00
28927;BME280;16038;47.692;9.400;2023-05-16T12:54:53;96327.50;;;13.34;97.16
28927;BME280;16038;47.692;9.400;2023-05-16T12:57:18;96322.34;;;13.58;97.57
28927;BME280;16038;47.692;9.400;2023-05-16T12:59:44;96330.22;;;13.52;97.43
28927;BME280;16038;47.692;9.400;2023-05-16T13:02:09;96330.56;;;13.83;98.30
28927;BME280;16038;47.692;9.400;2023-05-16T13:04:34;96323.13;;;13.69;98.31
28927;BME280;16038;47.692;9.400;2023-05-16T13:07:01;96324.25;;;13.79;97.71
28927;BME280;16038;47.692;9.400;2023-05-16T13:09:28;96318.72;;;13.90;99.23
28927;BME280;16038;47.692;9.400;2023-05-16T13:11:53;96323.81;;;14.02;96.68
28927;BME280;16038;47.692;9.400;2023-05-16T13:14:19;96325.84;;;13.76;95.08